Overview Statistics Trail Chart Weather Telemetry Raw packets
 

This is the latest recevied weather packets stored in our database for station/object K5KVN. If no packets are shown the sender has not sent any weather packets the latest 10 day(s).

<< 33 34 35 36 37 38 39 >>
Time Temp. Humidity Pressure Rain* Wind** Luminosity Snow
1788184962 27.78° C 69% 1019.6 hPa 0 mm - - -
1788184362 26.67° C 72% 1019.6 hPa 0 mm - - -
1788183760 25.56° C 75% 1019.5 hPa 0 mm - - -
1788183159 24.44° C 79% 1019.3 hPa 0 mm - - -
1788182559 23.33° C 81% 1019.3 hPa 0 mm - - -
1788181959 22.78° C 84% 1019.2 hPa 0 mm - - -
1788181357 22.22° C 84% 1019.1 hPa 0 mm - - -
1788180758 21.67° C 83% 1019.1 hPa 0 mm - - -
1788180158 21.67° C 83% 1018.9 hPa 0 mm - - -
1788179555 21.67° C 83% 1018.8 hPa 0 mm - - -
1788179014 21.11° C 83% 1018.6 hPa 0 mm - - -
1788178413 21.67° C 82% 1018.4 hPa 0 mm - - -
1788177750 21.67° C 81% 1018.5 hPa 0 mm - - -
1788177149 21.67° C 80% 1018.3 hPa 0 mm - - -
1788176549 22.22° C 79% 1018.2 hPa 0 mm - - -
1788175950 22.22° C 79% 1018 hPa 0 mm - - -
1788175348 22.22° C 78% 1018 hPa 0 mm - - -
1788174750 22.78° C 77% 1017.8 hPa 0 mm - - -
1788174148 22.78° C 76% 1017.8 hPa 0 mm - - -
1788173548 23.33° C 75% 1017.9 hPa 0 mm - - -
1788172948 23.89° C 74% 1017.8 hPa 0 mm - - -
1788172348 23.89° C 72% 1017.7 hPa 0 mm - - -
1788171748 24.44° C 71% 1017.5 hPa 0 mm - - -
1788171149 25° C 69% 1017.5 hPa 0 mm - - -
1788170549 25.56° C 68% 1017.7 hPa 0 mm - - -

* Rain latest hour (hover to see other rain measurements)
** Current wind speed in m/s (hover to see current wind gust speed)